Eagle Boston — 9VHI — position and weather

sailwx.info

Track history (hours):
 
Tides and Currents Weather Stations Pressure Air Temp Water Temp Dewpoint Dewpoint Depression Visibility Wind Speed Wind Dir Waves Ship Positions

Eagle Boston

Last reported at 2015-Apr-02 05:33 UTC. Time now 2015-Apr-02 06:32 UTC.
Position N 40°38' W 074°12'.

Length 254 m; draft 10.8 m.

Type: Tanker. MMSI: 564004000.

Date/timePositionNaut miles runAvg speedWind from/ knotsBaromVisibWave heightAir tempDewpointWater temp
2015-Apr-02 05:33N 40°38' W 074°12'0 0.0
2015-Apr-02 04:27N 40°38' W 074°12'0 0.0
2015-Apr-02 02:09N 40°38' W 074°12'0 0.0
2015-Apr-02 01:21N 40°38' W 074°12'0 0.0
2015-Apr-02 00:33N 40°38' W 074°12'0 0.0
2015-Apr-01 23:27N 40°38' W 074°12'0 0.0
2015-Apr-01 20:15N 40°38' W 074°12'0 0.0
2015-Apr-01 19:33N 40°38' W 074°12'0 0.0
2015-Apr-01 18:27N 40°38' W 074°12'0 0.0
2015-Apr-01 17:33N 40°38' W 074°12'0 0.0
2015-Apr-01 16:27N 40°38' W 074°12'0 0.0
2015-Apr-01 15:21N 40°38' W 074°12'0 0.0
2015-Apr-01 14:27N 40°38' W 074°12'0 0.0
2015-Apr-01 13:27N 40°38' W 074°12'0 0.0
2015-Apr-01 12:21N 40°38' W 074°12'0 0.0
2015-Apr-01 11:33N 40°38' W 074°12'2 2.3
2015-Apr-01 10:33N 40°39' W 074°09'5 5.5
2015-Apr-01 09:33N 40°37' W 074°03'9 8.9
2015-Apr-01 08:33N 40°30' W 073°56'8 7.6
2015-Apr-01 07:32N 40°28' W 073°45'5 5.2
2015-Apr-01 06:33N 40°30' W 073°40'0 0.1
2015-Apr-01 05:22N 40°30' W 073°39'0 0.0
2015-Apr-01 00:19N 40°30' W 073°40'0 0.0
2015-Mar-31 23:25N 40°30' W 073°40'0 0.1
2015-Mar-31 22:31N 40°30' W 073°40'0 0.0
2015-Mar-31 21:31N 40°30' W 073°40'0 0.3
2015-Mar-31 20:33N 40°30' W 073°39'2210.2
2015-Mar-31 18:24N 40°31' W 073°10'1213.5
2015-Mar-31 17:33N 40°30' W 072°55'1413.2
2015-Mar-31 16:29N 40°31' W 072°37'1213.1
2015-Mar-31 15:33N 40°31' W 072°21'1312.9
2015-Mar-31 14:33N 40°31' W 072°04'1212.4
2015-Mar-31 13:33N 40°32' W 071°48'1212.0
2015-Mar-31 12:33N 40°32' W 071°32'1312.8
2015-Mar-31 11:33N 40°32' W 071°15'1312.6
2015-Mar-31 10:32N 40°33' W 070°58'1212.6
2015-Mar-31 09:33N 40°33' W 070°42'1812.6
2015-Mar-31 08:05N 40°33' W 070°17'21013.9
2015-Mar-30 17:00N 41°54' W 066°00'18811.4 230 / 151017.010.8 0.5 6.0-2.2 2.0
2015-Mar-30 00:32N 44°26' W 063°29'7 7.3
2015-Mar-29 23:33N 44°28' W 063°19'10616.1
2015-Mar-29 17:00N 45°06' W 061°00'   240 / 201015.010.8 1.5 3.0-6.6 2.0
2015-Mar-26 02:33N 39°53' W 070°57'1313.2
2015-Mar-26 01:33N 39°53' W 071°14'1313.2
2015-Mar-26 00:33N 39°52' W 071°31'1313.2
2015-Mar-25 23:33N 39°54' W 071°48'1313.2
2015-Mar-25 22:33N 39°55' W 072°06'1313.3
2015-Mar-25 21:33N 39°56' W 072°23'1313.5
2015-Mar-25 20:33N 39°57' W 072°40'5291.0
2015-Mar-25 20:00N 40°18' W 073°42'3989.3 150 / 151030.0 5.4 0.5 8.0 3.3 2.0
2015-Mar-25 19:33N 39°59' W 072°58'1413.8
2015-Mar-25 18:33N 39°60' W 073°16'1412.9
2015-Mar-25 17:28N 40°10' W 073°29'1111.9
2015-Mar-25 16:33N 40°18' W 073°39'8 8.3
2015-Mar-25 15:33N 40°25' W 073°43'5 2.4
2015-Mar-25 13:25N 40°30' W 073°39'0 0.1
2015-Mar-25 12:25N 40°30' W 073°39'0 0.1
2015-Mar-25 11:13N 40°29' W 073°39'0 0.1
2015-Mar-25 10:28N 40°29' W 073°39'0 0.0
2015-Mar-25 07:16N 40°30' W 073°39'0 0.1
2015-Mar-25 06:28N 40°30' W 073°39'0 0.0
2015-Mar-25 05:31N 40°30' W 073°39'0 0.1
2015-Mar-25 04:31N 40°30' W 073°39'0 0.0
2015-Mar-25 03:28N 40°30' W 073°39'0 0.0
2015-Mar-25 02:28N 40°30' W 073°39'0 0.0
2015-Mar-25 01:28N 40°30' W 073°39'0 0.0
2015-Mar-25 00:22N 40°30' W 073°39'0 0.0
2015-Mar-24 23:25N 40°30' W 073°39'0 0.0
2015-Mar-24 15:07N 40°29' W 073°39'0 0.0
2015-Mar-24 13:25N 40°29' W 073°39'0 0.0
2015-Mar-24 11:13N 40°29' W 073°39'0 0.0
2015-Mar-24 10:19N 40°29' W 073°39'0 0.0
2015-Mar-24 09:31N 40°29' W 073°39'0 0.0
2015-Mar-24 08:31N 40°29' W 073°39'0 0.0
2015-Mar-24 02:19N 40°29' W 073°39'0 0.0
2015-Mar-23 19:25N 40°30' W 073°39'0 0.0
2015-Mar-23 18:16N 40°30' W 073°39'0 0.0
2015-Mar-23 12:10N 40°29' W 073°39'0 0.0
2015-Mar-23 09:19N 40°29' W 073°39'  
Track history (hours):
 
Tides and Currents Weather Stations Pressure Air Temp Water Temp Dewpoint Dewpoint Depression Visibility Wind Speed Wind Dir Waves Ship Positions

Eagle Boston

Last reported at 2015-Apr-02 05:33 UTC. Time now 2015-Apr-02 06:32 UTC.
Position N 40°38' W 074°12'.

Length 254 m; draft 10.8 m.

Type: Tanker. MMSI: 564004000.

Date/timePositionNaut miles runAvg speedWind from/ knotsBaromVisibWave heightAir tempDewpointWater temp
2015-Apr-02 05:33N 40°38' W 074°12'0 0.0
2015-Apr-02 04:27N 40°38' W 074°12'0 0.0
2015-Apr-02 02:09N 40°38' W 074°12'0 0.0
2015-Apr-02 01:21N 40°38' W 074°12'0 0.0
2015-Apr-02 00:33N 40°38' W 074°12'0 0.0
2015-Apr-01 23:27N 40°38' W 074°12'0 0.0
2015-Apr-01 20:15N 40°38' W 074°12'0 0.0
2015-Apr-01 19:33N 40°38' W 074°12'0 0.0
2015-Apr-01 18:27N 40°38' W 074°12'0 0.0
2015-Apr-01 17:33N 40°38' W 074°12'0 0.0
2015-Apr-01 16:27N 40°38' W 074°12'0 0.0
2015-Apr-01 15:21N 40°38' W 074°12'0 0.0
2015-Apr-01 14:27N 40°38' W 074°12'0 0.0
2015-Apr-01 13:27N 40°38' W 074°12'0 0.0
2015-Apr-01 12:21N 40°38' W 074°12'0 0.0
2015-Apr-01 11:33N 40°38' W 074°12'2 2.3
2015-Apr-01 10:33N 40°39' W 074°09'5 5.5
2015-Apr-01 09:33N 40°37' W 074°03'9 8.9
2015-Apr-01 08:33N 40°30' W 073°56'8 7.6
2015-Apr-01 07:32N 40°28' W 073°45'5 5.2
2015-Apr-01 06:33N 40°30' W 073°40'0 0.1
2015-Apr-01 05:22N 40°30' W 073°39'0 0.0
2015-Apr-01 00:19N 40°30' W 073°40'0 0.0
2015-Mar-31 23:25N 40°30' W 073°40'0 0.1
2015-Mar-31 22:31N 40°30' W 073°40'0 0.0
2015-Mar-31 21:31N 40°30' W 073°40'0 0.3
2015-Mar-31 20:33N 40°30' W 073°39'2210.2
2015-Mar-31 18:24N 40°31' W 073°10'1213.5
2015-Mar-31 17:33N 40°30' W 072°55'1413.2
2015-Mar-31 16:29N 40°31' W 072°37'1213.1
2015-Mar-31 15:33N 40°31' W 072°21'1312.9
2015-Mar-31 14:33N 40°31' W 072°04'1212.4
2015-Mar-31 13:33N 40°32' W 071°48'1212.0
2015-Mar-31 12:33N 40°32' W 071°32'1312.8
2015-Mar-31 11:33N 40°32' W 071°15'1312.6
2015-Mar-31 10:32N 40°33' W 070°58'1212.6
2015-Mar-31 09:33N 40°33' W 070°42'1812.6
2015-Mar-31 08:05N 40°33' W 070°17'21013.9
2015-Mar-30 17:00N 41°54' W 066°00'18811.4 230 / 151017.010.8 0.5 6.0-2.2 2.0
2015-Mar-30 00:32N 44°26' W 063°29'7 7.3
2015-Mar-29 23:33N 44°28' W 063°19'10616.1
2015-Mar-29 17:00N 45°06' W 061°00'   240 / 201015.010.8 1.5 3.0-6.6 2.0
2015-Mar-26 02:33N 39°53' W 070°57'1313.2
2015-Mar-26 01:33N 39°53' W 071°14'1313.2
2015-Mar-26 00:33N 39°52' W 071°31'1313.2
2015-Mar-25 23:33N 39°54' W 071°48'1313.2
2015-Mar-25 22:33N 39°55' W 072°06'1313.3
2015-Mar-25 21:33N 39°56' W 072°23'1313.5
2015-Mar-25 20:33N 39°57' W 072°40'5291.0
2015-Mar-25 20:00N 40°18' W 073°42'3989.3 150 / 151030.0 5.4 0.5 8.0 3.3 2.0
2015-Mar-25 19:33N 39°59' W 072°58'1413.8
2015-Mar-25 18:33N 39°60' W 073°16'1412.9
2015-Mar-25 17:28N 40°10' W 073°29'1111.9
2015-Mar-25 16:33N 40°18' W 073°39'8 8.3
2015-Mar-25 15:33N 40°25' W 073°43'5 2.4
2015-Mar-25 13:25N 40°30' W 073°39'0 0.1
2015-Mar-25 12:25N 40°30' W 073°39'0 0.1
2015-Mar-25 11:13N 40°29' W 073°39'0 0.1
2015-Mar-25 10:28N 40°29' W 073°39'0 0.0
2015-Mar-25 07:16N 40°30' W 073°39'0 0.1
2015-Mar-25 06:28N 40°30' W 073°39'0 0.0
2015-Mar-25 05:31N 40°30' W 073°39'0 0.1
2015-Mar-25 04:31N 40°30' W 073°39'0 0.0
2015-Mar-25 03:28N 40°30' W 073°39'0 0.0
2015-Mar-25 02:28N 40°30' W 073°39'0 0.0
2015-Mar-25 01:28N 40°30' W 073°39'0 0.0
2015-Mar-25 00:22N 40°30' W 073°39'0 0.0
2015-Mar-24 23:25N 40°30' W 073°39'0 0.0
2015-Mar-24 15:07N 40°29' W 073°39'0 0.0
2015-Mar-24 13:25N 40°29' W 073°39'0 0.0
2015-Mar-24 11:13N 40°29' W 073°39'0 0.0
2015-Mar-24 10:19N 40°29' W 073°39'0 0.0
2015-Mar-24 09:31N 40°29' W 073°39'0 0.0
2015-Mar-24 08:31N 40°29' W 073°39'0 0.0
2015-Mar-24 02:19N 40°29' W 073°39'0 0.0
2015-Mar-23 19:25N 40°30' W 073°39'0 0.0
2015-Mar-23 18:16N 40°30' W 073°39'0 0.0
2015-Mar-23 12:10N 40°29' W 073°39'0 0.0
2015-Mar-23 09:19N 40°29' W 073°39'  

Dump ship's entire track history